Aérodrome :
LOGIN :

S'inscrire | Disclaimer

   EN    FR    IT 

 










Légende :    VFR   VFR Marginal   IFR   IFR Intensif   IFR Très Intensif
Visi : 
Plafond : 
>= 8 km
>= 3000ft
5 à 8 km
1000 à 3000 ft
1500m à 5 km
500 à 1000 ft
800 à 1500m
200 à 500 ft
< 800m
< 200 ft
Symboles :   Orages  Brouillard  Fortes neiges  Fortes précipitations  Vent > 20 kt
SIGMETs :   Divers  Orages  Givrage  Turbulence  Onde Orograph.  Cendres Volcan.






- Altitude de l'aérodrome : 939 ft


LKKB - Kbely Air Base

DERNIER METAR :
  • 161400Z 28010KT 9999 SCT028 OVC048 M03/M09 Q1020 NOSIG

METARs EXPIRÉS :
  • 161330Z 27010KT 9999 FEW024 OVC048 M03/M09 Q1020 NOSIG
  • 161300Z 27010KT 9999 -SN FEW019 OVC023 M04/M08 Q1021 NOSIG
  • 161230Z 25009KT 9999 -SN SCT019 OVC024 M04/M08 Q1021 NOSIG
  • 161200Z 24008KT 9999 -SN SCT018 OVC023 M04/M08 Q1022 NOSIG
  • 161130Z 24008KT 9999 -SN FEW020 OVC046 M04/M08 Q1022 NOSIG
  • 161100Z 24008KT 9999 -SN FEW020 BKN033 OVC044 M05/M08 Q1022 NOSIG

TAF TAF LKKB
Valide du 16 à 12h jusqu'au 17 à 12h UTC


161100Z 1612/1712 26008KT 9999 BKN035
TEMPO 1612/1617 4000 SN BKN010 OVC020
BECMG 1617/1619 CAVOK
BECMG 1700/1702 BKN040
BECMG 1705/1707 24005KT



MET'MAP, la Météo Aéronautique d'un coup d'oeil ! - Copyright ORBIFLY Décembre 2007 - Disclaimer

ORBIFLY MET'MAP TEAM :

Programmation & Développement : Alexandra Zaïnal
Sur une idée originale de : Baudouin d'Aumeries
Assistance à la programmation : Marc-Olivier Méhu
Soutien technique & logistique : Manuel Goepfert

Contact : metmap@orbifly.com




SOURCES & CREDITS :

   NOAA